METAR AND TAF INFORMATION
METAR FOR FAKN
ADDS - METARS form results

(0704 UTC 25 August 2019)
Data provider http://aviationweather.gov/metar/data/
 
Forecast for: FAKN (KRUGER MPUMALANG, ZA)
Text: TAF FAKN 250600Z 2507/2518 VRB03KT CAVOK TX29/2513Z TN21/2518Z
Forecast period: 0700 to 1200 UTC 25 August 2019
Forecast type: FROM: standard forecast or significant change
Winds: variable direction winds at 3 MPH (3 knots; 1.5 m/s)
Visibility: 6 or more miles 10+ km)
Ceiling: unknown
Clouds: missing
Weather: no significant weather forecast for this period
Text: BECMG 2512/2514 06008KT
Forecast period: 1200 to 1800 UTC 25 August 2019
Forecast type: BECOMING: Conditions expected to become as follows by 1400 UTC 25 August 2019
Winds: from the ENE (60 degrees) at 9 MPH (8 knots; 4.1 m/s)
Visibility: 6 or more miles 10+ km)
Ceiling: unknown
Clouds: missing
Weather: no significant weather forecast for this period

 AIRPORT MAP

 RUNWAY INFORMATION
Runway 05 Runway length 10171 ft Runway width 148 ft
Runway elevation 2825 ft Runway displaced threshold 1639 ft Runway heading 34
Runway 23 Runway length 10171 ft Runway width 148 ft
Runway elevation 2827 ft Runway displaced threshold 0 ft Runway heading 214

 AIRPORT FREQUENCIES
Type ARR Name APP Frequency 119.2 MHZ
Type TWR Name TWR Frequency 119.2 MHZ

 AIRPORT NEAR NAVIGATION AIDS
Type NDB Name Kruger Mpumalanga Frequency 405 KHZ



The South Africal Virtual Air Force